Time;durP1;ratioP1;P1;durP2;ratioP2;P2;SDS_P1;SDS_P2;PMS_P1;PMS_P2;Temp;Humidity;BMP_temperature;BMP_pressure;BME280_temperature;BME280_humidity;BME280_pressure;Samples;Min_cycle;Max_cycle;Signal;HPM_P1;HPM_P2
2022/02/27 00:00:31;;;;;;;21.95;10.80;;;;;;;;;;5020672;28;20085;-86
2022/02/27 00:02:57;;;;;;;28.45;12.18;;;;;;;;;;5027458;28;20084;-85
2022/02/27 00:05:25;;;;;;;32.15;12.27;;;;;;;;;;5028502;28;20057;-84
2022/02/27 00:07:52;;;;;;;28.27;11.27;;;;;;;;;;5028641;28;20117;-86
2022/02/27 00:10:20;;;;;;;26.58;11.70;;;;;;;;;;5023770;28;20113;-84
2022/02/27 00:12:47;;;;;;;23.10;11.68;;;;;;;;;;5033519;28;20088;-85
2022/02/27 00:15:13;;;;;;;25.55;11.48;;;;;;;;;;5028090;28;20512;-83
2022/02/27 00:17:40;;;;;;;31.23;11.82;;;;;;;;;;5029170;28;20066;-83
2022/02/27 00:20:07;;;;;;;21.55;11.05;;;;;;;;;;5028565;28;20057;-83
2022/02/27 00:22:35;;;;;;;25.48;11.13;;;;;;;;;;5027216;28;20073;-84
2022/02/27 00:25:02;;;;;;;28.60;12.07;;;;;;;;;;5026629;28;20401;-84
2022/02/27 00:27:28;;;;;;;26.17;12.00;;;;;;;;;;5027511;28;20126;-83
2022/02/27 00:29:55;;;;;;;23.73;11.85;;;;;;;;;;5026254;28;20073;-83
2022/02/27 00:32:21;;;;;;;23.55;10.88;;;;;;;;;;5026233;28;20088;-83
2022/02/27 00:34:47;;;;;;;29.38;12.20;;;;;;;;;;5024074;28;20078;-80
2022/02/27 00:37:14;;;;;;;23.60;11.10;;;;;;;;;;5014634;28;20130;-83
2022/02/27 00:39:42;;;;;;;26.52;12.27;;;;;;;;;;5006767;28;20131;-83
2022/02/27 00:42:08;;;;;;;24.40;12.02;;;;;;;;;;5026971;28;20033;-84
2022/02/27 00:44:35;;;;;;;28.67;12.70;;;;;;;;;;5030514;28;20110;-84
2022/02/27 00:47:01;;;;;;;34.83;12.88;;;;;;;;;;5036099;28;20084;-84
2022/02/27 00:49:27;;;;;;;25.52;12.82;;;;;;;;;;5030268;28;20373;-84
2022/02/27 00:51:54;;;;;;;25.40;12.65;;;;;;;;;;5025677;28;20109;-83
2022/02/27 00:54:23;;;;;;;31.23;12.68;;;;;;;;;;5024223;28;20081;-83
2022/02/27 00:56:54;;;;;;;26.63;11.90;;;;;;;;;;5022880;28;20144;-83
2022/02/27 00:59:20;;;;;;;26.27;11.40;;;;;;;;;;5027250;28;20053;-84
2022/02/27 01:01:46;;;;;;;20.60;11.95;;;;;;;;;;5023967;28;20054;-84
2022/02/27 01:04:13;;;;;;;31.30;11.23;;;;;;;;;;5022356;28;20128;-83
2022/02/27 01:06:39;;;;;;;29.77;11.40;;;;;;;;;;5042928;22;20189;-84
2022/02/27 01:09:06;;;;;;;29.17;11.55;;;;;;;;;;5033184;28;20132;-84
2022/02/27 01:11:33;;;;;;;23.88;12.30;;;;;;;;;;5040072;28;20073;-84
2022/02/27 01:14:01;;;;;;;24.85;12.55;;;;;;;;;;5042199;28;20056;-83
2022/02/27 01:16:28;;;;;;;26.33;11.10;;;;;;;;;;5026462;28;20155;-83
2022/02/27 01:18:54;;;;;;;29.63;11.80;;;;;;;;;;5019192;28;20396;-84
2022/02/27 01:21:21;;;;;;;24.02;12.45;;;;;;;;;;5033559;28;20141;-82
2022/02/27 01:23:48;;;;;;;28.00;11.75;;;;;;;;;;5021793;28;20077;-84
2022/02/27 01:26:15;;;;;;;29.05;11.80;;;;;;;;;;5019472;28;20133;-83
2022/02/27 01:28:41;;;;;;;21.85;10.82;;;;;;;;;;5006893;28;20217;-84
2022/02/27 01:31:09;;;;;;;25.15;11.52;;;;;;;;;;5000553;28;20053;-83
2022/02/27 01:33:36;;;;;;;24.45;11.50;;;;;;;;;;5001852;28;20420;-84
2022/02/27 01:36:02;;;;;;;27.55;12.27;;;;;;;;;;5007142;28;20088;-84
2022/02/27 01:38:29;;;;;;;22.15;11.38;;;;;;;;;;5005501;28;20093;-85
2022/02/27 01:40:55;;;;;;;29.15;11.45;;;;;;;;;;5004825;28;20054;-82
2022/02/27 01:43:22;;;;;;;22.58;11.45;;;;;;;;;;5007229;28;20125;-84
2022/02/27 01:45:48;;;;;;;21.58;12.23;;;;;;;;;;5001896;28;20118;-84
2022/02/27 01:48:16;;;;;;;23.13;11.38;;;;;;;;;;5001275;28;20054;-84
2022/02/27 01:50:42;;;;;;;21.35;12.45;;;;;;;;;;5001223;28;20468;-83
2022/02/27 01:53:09;;;;;;;24.88;11.40;;;;;;;;;;5007033;28;20089;-82
2022/02/27 01:55:35;;;;;;;21.80;11.65;;;;;;;;;;5003915;28;20053;-85
2022/02/27 01:58:02;;;;;;;29.45;11.40;;;;;;;;;;4998920;28;20141;-84
2022/02/27 02:00:28;;;;;;;25.00;11.90;;;;;;;;;;4998786;28;20456;-84
2022/02/27 02:02:55;;;;;;;23.02;13.00;;;;;;;;;;4999885;28;20118;-84
2022/02/27 02:05:22;;;;;;;29.00;10.63;;;;;;;;;;4997816;28;20531;-84
2022/02/27 02:07:49;;;;;;;22.50;11.00;;;;;;;;;;4998355;28;20129;-82
2022/02/27 02:10:15;;;;;;;22.25;11.05;;;;;;;;;;4997751;28;20504;-84
2022/02/27 02:12:42;;;;;;;28.13;11.60;;;;;;;;;;4998876;28;20077;-83
2022/02/27 02:15:09;;;;;;;20.48;11.00;;;;;;;;;;4998497;28;20548;-85
2022/02/27 02:17:36;;;;;;;22.80;10.98;;;;;;;;;;4998049;28;20077;-83
2022/02/27 02:20:04;;;;;;;29.05;11.30;;;;;;;;;;4996726;28;20482;-83
2022/02/27 02:22:30;;;;;;;22.50;10.70;;;;;;;;;;4995915;28;20073;-83
2022/02/27 02:24:57;;;;;;;20.48;10.50;;;;;;;;;;4997770;28;20046;-84
2022/02/27 02:27:23;;;;;;;27.33;11.45;;;;;;;;;;4998707;28;20058;-84
2022/02/27 02:29:49;;;;;;;26.50;11.05;;;;;;;;;;4997701;28;20053;-84
2022/02/27 02:32:16;;;;;;;23.38;10.98;;;;;;;;;;4999446;28;20054;-85
2022/02/27 02:34:42;;;;;;;21.95;10.18;;;;;;;;;;4999166;28;20050;-80
2022/02/27 02:37:11;;;;;;;27.48;10.98;;;;;;;;;;4998033;28;20145;-85
2022/02/27 02:39:38;;;;;;;24.35;10.60;;;;;;;;;;4994394;28;20206;-83
2022/02/27 02:42:04;;;;;;;21.95;11.90;;;;;;;;;;4994686;28;20054;-83
2022/02/27 02:44:31;;;;;;;26.13;10.85;;;;;;;;;;4994045;28;20046;-84
2022/02/27 02:46:57;;;;;;;20.80;10.07;;;;;;;;;;4995599;28;20078;-84
2022/02/27 02:49:24;;;;;;;20.88;10.00;;;;;;;;;;4995833;28;20133;-84
2022/02/27 02:51:50;;;;;;;19.67;10.02;;;;;;;;;;4995359;28;20050;-82
2022/02/27 02:54:18;;;;;;;26.40;10.10;;;;;;;;;;4998491;28;20480;-82
2022/02/27 02:56:44;;;;;;;21.88;10.15;;;;;;;;;;4999513;28;20157;-85
2022/02/27 02:59:11;;;;;;;21.40;10.82;;;;;;;;;;4998213;28;20077;-82
2022/02/27 03:01:37;;;;;;;25.48;9.98;;;;;;;;;;5001055;28;20130;-82
2022/02/27 03:04:04;;;;;;;25.13;10.23;;;;;;;;;;5001125;28;20102;-83
2022/02/27 03:06:31;;;;;;;24.42;10.35;;;;;;;;;;5003702;28;20110;-84
2022/02/27 03:08:58;;;;;;;24.85;10.73;;;;;;;;;;5001956;28;20081;-83
2022/02/27 03:11:26;;;;;;;22.58;10.25;;;;;;;;;;5000987;28;20058;-83
2022/02/27 03:13:53;;;;;;;22.50;9.68;;;;;;;;;;5001718;28;20046;-83
2022/02/27 03:16:19;;;;;;;19.80;10.10;;;;;;;;;;5003528;28;20361;-83
2022/02/27 03:18:46;;;;;;;20.75;9.55;;;;;;;;;;5003543;28;20074;-82
2022/02/27 03:21:12;;;;;;;23.77;10.48;;;;;;;;;;5003619;28;20133;-82
2022/02/27 03:23:39;;;;;;;18.88;8.52;;;;;;;;;;5002844;28;20060;-82
2022/02/27 03:26:05;;;;;;;16.80;9.25;;;;;;;;;;5002884;28;20073;-82
2022/02/27 03:28:33;;;;;;;20.17;9.50;;;;;;;;;;5002329;28;20191;-83
2022/02/27 03:30:59;;;;;;;18.00;9.18;;;;;;;;;;5004837;28;20054;-82
2022/02/27 03:33:26;;;;;;;16.73;9.35;;;;;;;;;;5005128;28;20050;-83
2022/02/27 03:35:52;;;;;;;24.58;10.52;;;;;;;;;;5005080;28;20043;-84
2022/02/27 03:38:19;;;;;;;18.27;9.05;;;;;;;;;;5003578;28;20054;-81
2022/02/27 03:40:45;;;;;;;19.33;9.07;;;;;;;;;;5004218;28;20054;-83
2022/02/27 03:43:12;;;;;;;20.42;9.20;;;;;;;;;;5003714;28;20141;-83
2022/02/27 03:45:40;;;;;;;18.00;9.50;;;;;;;;;;5003648;28;20129;-83
2022/02/27 03:48:07;;;;;;;17.38;8.73;;;;;;;;;;5003149;28;20113;-84
2022/02/27 03:50:33;;;;;;;18.83;9.00;;;;;;;;;;5001792;28;20078;-84
2022/02/27 03:53:00;;;;;;;17.67;8.40;;;;;;;;;;5003216;28;20133;-83
2022/02/27 03:55:26;;;;;;;24.90;9.63;;;;;;;;;;5001268;28;20236;-83
2022/02/27 03:57:52;;;;;;;21.13;9.30;;;;;;;;;;5000638;28;20133;-84
2022/02/27 04:00:19;;;;;;;17.63;9.63;;;;;;;;;;5001098;28;20492;-83
2022/02/27 04:02:47;;;;;;;19.85;9.15;;;;;;;;;;5000320;28;20142;-83
2022/02/27 04:05:14;;;;;;;21.52;9.35;;;;;;;;;;4999659;28;20077;-83
2022/02/27 04:07:40;;;;;;;20.85;9.88;;;;;;;;;;4998260;28;20145;-81
2022/02/27 04:10:07;;;;;;;23.35;10.70;;;;;;;;;;5000664;28;20050;-82
2022/02/27 04:12:33;;;;;;;24.25;10.27;;;;;;;;;;4999787;28;20136;-82
2022/02/27 04:15:00;;;;;;;27.42;11.00;;;;;;;;;;5001006;28;20102;-81
2022/02/27 04:17:26;;;;;;;22.50;10.77;;;;;;;;;;5000617;28;20112;-83
2022/02/27 04:19:54;;;;;;;26.33;10.48;;;;;;;;;;4997128;28;20090;-83
2022/02/27 04:22:20;;;;;;;22.13;9.65;;;;;;;;;;4996446;28;20462;-82
2022/02/27 04:24:47;;;;;;;24.17;10.00;;;;;;;;;;5001315;28;20042;-79
2022/02/27 04:27:13;;;;;;;22.08;10.18;;;;;;;;;;5001389;28;20454;-83
2022/02/27 04:29:41;;;;;;;18.40;8.90;;;;;;;;;;5000089;28;20070;-82
2022/02/27 04:32:08;;;;;;;27.20;10.73;;;;;;;;;;4999494;28;20064;-83
2022/02/27 04:34:34;;;;;;;20.00;8.88;;;;;;;;;;5000687;28;20077;-83
2022/02/27 04:37:02;;;;;;;20.48;8.68;;;;;;;;;;5003494;28;20066;-84
2022/02/27 04:39:29;;;;;;;18.17;9.30;;;;;;;;;;5001486;28;20068;-82
2022/02/27 04:41:55;;;;;;;23.50;8.95;;;;;;;;;;4999734;28;20078;-85
2022/02/27 04:44:21;;;;;;;20.15;9.57;;;;;;;;;;5000672;28;20082;-85
2022/02/27 04:46:48;;;;;;;19.75;9.13;;;;;;;;;;4999944;28;20082;-85
2022/02/27 04:49:14;;;;;;;21.65;8.30;;;;;;;;;;5001019;28;20141;-84
2022/02/27 04:51:41;;;;;;;20.23;8.70;;;;;;;;;;5003333;28;20096;-83
2022/02/27 04:54:09;;;;;;;22.80;9.75;;;;;;;;;;4998917;28;20086;-82
2022/02/27 04:56:35;;;;;;;16.35;9.80;;;;;;;;;;4997659;28;20082;-82
2022/02/27 04:59:04;;;;;;;24.05;9.30;;;;;;;;;;4998323;28;20133;-83
2022/02/27 05:01:30;;;;;;;25.23;9.35;;;;;;;;;;5001080;28;20137;-84
2022/02/27 05:03:57;;;;;;;16.13;9.68;;;;;;;;;;5001898;28;20152;-85
2022/02/27 05:06:23;;;;;;;19.58;8.82;;;;;;;;;;5002417;28;20043;-84
2022/02/27 05:08:50;;;;;;;19.48;9.68;;;;;;;;;;4999849;28;20081;-83
2022/02/27 05:11:17;;;;;;;21.30;8.88;;;;;;;;;;4998340;28;20539;-83
2022/02/27 05:13:44;;;;;;;18.65;8.82;;;;;;;;;;4999077;28;20165;-84
2022/02/27 05:16:10;;;;;;;21.63;9.48;;;;;;;;;;4998033;28;20129;-83
2022/02/27 05:18:37;;;;;;;20.50;9.52;;;;;;;;;;4998334;28;20085;-85
2022/02/27 05:21:04;;;;;;;20.65;8.85;;;;;;;;;;4999853;28;20085;-84
2022/02/27 05:23:30;;;;;;;17.13;8.90;;;;;;;;;;5001237;28;20058;-84
2022/02/27 05:25:58;;;;;;;22.75;8.68;;;;;;;;;;5000778;28;20420;-84
2022/02/27 05:28:26;;;;;;;18.90;8.45;;;;;;;;;;5001149;28;20134;-84
2022/02/27 05:30:53;;;;;;;18.65;9.13;;;;;;;;;;5000340;28;20133;-84
2022/02/27 05:33:19;;;;;;;19.73;8.63;;;;;;;;;;4998501;28;20137;-84
2022/02/27 05:35:45;;;;;;;17.05;8.35;;;;;;;;;;5001930;28;20121;-84
2022/02/27 05:38:12;;;;;;;20.08;8.75;;;;;;;;;;4998791;28;20073;-83
2022/02/27 05:40:38;;;;;;;22.13;8.15;;;;;;;;;;4998444;28;20129;-84
2022/02/27 05:43:05;;;;;;;19.17;8.80;;;;;;;;;;4999845;28;20133;-83
2022/02/27 05:45:32;;;;;;;22.08;10.85;;;;;;;;;;4996406;28;20046;-82
2022/02/27 05:47:59;;;;;;;15.55;8.45;;;;;;;;;;4997220;28;20097;-80
2022/02/27 05:50:25;;;;;;;20.23;8.10;;;;;;;;;;4994989;28;20153;-82
2022/02/27 05:52:52;;;;;;;17.85;8.63;;;;;;;;;;4994381;28;20401;-82
2022/02/27 05:55:18;;;;;;;17.00;8.45;;;;;;;;;;4994857;28;20056;-81
2022/02/27 05:57:44;;;;;;;19.30;9.15;;;;;;;;;;4995193;28;20421;-82
2022/02/27 06:00:11;;;;;;;22.40;8.25;;;;;;;;;;4993695;28;20081;-82
2022/02/27 06:02:39;;;;;;;19.88;9.10;;;;;;;;;;4994903;28;20046;-84
2022/02/27 06:05:06;;;;;;;14.90;8.32;;;;;;;;;;4995799;28;20050;-84
2022/02/27 06:07:32;;;;;;;21.80;8.80;;;;;;;;;;4997949;28;20086;-82
2022/02/27 06:09:59;;;;;;;21.50;8.15;;;;;;;;;;4996542;28;20109;-83
2022/02/27 06:12:25;;;;;;;20.48;8.73;;;;;;;;;;4997067;28;20253;-83
2022/02/27 06:14:51;;;;;;;18.90;8.52;;;;;;;;;;4997304;28;20065;-81
2022/02/27 06:17:18;;;;;;;15.55;8.57;;;;;;;;;;4997087;28;20093;-81
2022/02/27 06:19:46;;;;;;;27.67;9.00;;;;;;;;;;4995910;28;20050;-82
2022/02/27 06:22:12;;;;;;;22.90;8.63;;;;;;;;;;4997280;28;20473;-83
2022/02/27 06:24:38;;;;;;;18.17;8.38;;;;;;;;;;4997185;28;20136;-84
2022/02/27 06:27:05;;;;;;;21.83;8.80;;;;;;;;;;4997506;28;20407;-84
2022/02/27 06:29:31;;;;;;;21.95;9.07;;;;;;;;;;4996572;28;20104;-83
2022/02/27 06:31:58;;;;;;;16.48;8.52;;;;;;;;;;4996433;28;20100;-82
2022/02/27 06:34:24;;;;;;;23.83;8.82;;;;;;;;;;4995819;28;20078;-83
2022/02/27 06:36:52;;;;;;;18.85;8.85;;;;;;;;;;4997639;28;20521;-85
2022/02/27 06:39:18;;;;;;;18.17;8.80;;;;;;;;;;4997191;28;20114;-84
2022/02/27 06:41:46;;;;;;;17.63;8.10;;;;;;;;;;5000053;28;20050;-84
2022/02/27 06:44:12;;;;;;;19.10;8.05;;;;;;;;;;5001664;28;20130;-85
2022/02/27 06:46:38;;;;;;;17.20;8.07;;;;;;;;;;4997835;28;20133;-83
2022/02/27 06:49:05;;;;;;;18.70;7.57;;;;;;;;;;4995774;28;20074;-83
2022/02/27 06:51:31;;;;;;;18.20;7.35;;;;;;;;;;4997559;28;20138;-83
2022/02/27 06:53:59;;;;;;;20.45;7.75;;;;;;;;;;4999729;28;20074;-84
2022/02/27 06:56:25;;;;;;;14.35;7.63;;;;;;;;;;5003378;28;20035;-82
2022/02/27 06:58:52;;;;;;;13.65;6.55;;;;;;;;;;5002313;28;20460;-85
2022/02/27 07:01:18;;;;;;;15.10;7.22;;;;;;;;;;5006321;28;20050;-83
2022/02/27 07:03:45;;;;;;;16.85;6.50;;;;;;;;;;5000292;28;20060;-84
2022/02/27 07:06:11;;;;;;;15.50;6.32;;;;;;;;;;5014902;23;20057;-79
2022/02/27 07:08:38;;;;;;;10.18;5.45;;;;;;;;;;5040562;28;20049;-82
2022/02/27 07:11:05;;;;;;;14.50;6.30;;;;;;;;;;5052030;28;20057;-80
2022/02/27 07:13:32;;;;;;;10.05;5.15;;;;;;;;;;5052912;28;20068;-80
2022/02/27 07:15:58;;;;;;;13.30;5.97;;;;;;;;;;5051552;28;20056;-82
2022/02/27 07:18:25;;;;;;;13.68;5.65;;;;;;;;;;5051126;28;20088;-82
2022/02/27 07:20:51;;;;;;;11.52;5.57;;;;;;;;;;5051575;28;20081;-81
2022/02/27 07:23:17;;;;;;;12.80;5.80;;;;;;;;;;5051558;28;20046;-81
2022/02/27 07:25:44;;;;;;;14.43;5.30;;;;;;;;;;5051155;28;20050;-81
2022/02/27 07:28:14;;;;;;;10.52;5.35;;;;;;;;;;5045474;28;20486;-81
2022/02/27 07:30:40;;;;;;;12.35;5.50;;;;;;;;;;5049235;28;20109;-81
2022/02/27 07:33:07;;;;;;;13.52;5.40;;;;;;;;;;5050506;28;20088;-81
2022/02/27 07:35:33;;;;;;;13.95;5.45;;;;;;;;;;5050107;28;20053;-80
2022/02/27 07:38:00;;;;;;;10.98;5.70;;;;;;;;;;5050092;28;20121;-79
2022/02/27 07:40:26;;;;;;;13.30;5.80;;;;;;;;;;5049428;28;20053;-80
2022/02/27 07:42:52;;;;;;;10.55;5.20;;;;;;;;;;5054937;28;20050;-81
2022/02/27 07:45:21;;;;;;;13.20;5.82;;;;;;;;;;5052480;28;20054;-78
2022/02/27 07:47:48;;;;;;;13.43;5.90;;;;;;;;;;5045936;28;20072;-79
2022/02/27 07:50:14;;;;;;;10.75;5.60;;;;;;;;;;5050395;28;20429;-82
2022/02/27 07:52:41;;;;;;;12.35;6.93;;;;;;;;;;5057564;28;20073;-82
2022/02/27 07:55:07;;;;;;;14.18;6.03;;;;;;;;;;5056582;28;20076;-82
2022/02/27 07:57:34;;;;;;;12.85;5.80;;;;;;;;;;5056438;28;20072;-82
2022/02/27 08:00:00;;;;;;;10.38;5.68;;;;;;;;;;5056012;28;20076;-80
2022/02/27 08:02:28;;;;;;;11.48;5.60;;;;;;;;;;5053052;28;20060;-82
2022/02/27 08:04:54;;;;;;;15.00;7.07;;;;;;;;;;5031211;28;20089;-83
2022/02/27 08:07:21;;;;;;;11.40;5.30;;;;;;;;;;5033151;28;20069;-81
2022/02/27 08:09:47;;;;;;;12.15;5.82;;;;;;;;;;5027192;28;20066;-80
2022/02/27 08:12:15;;;;;;;13.93;6.03;;;;;;;;;;5030875;28;20104;-82
2022/02/27 08:14:46;;;;;;;11.07;5.72;;;;;;;;;;5032465;28;20060;-80
2022/02/27 08:17:13;;;;;;;13.80;6.43;;;;;;;;;;5036188;28;20073;-81
2022/02/27 08:19:41;;;;;;;21.73;6.78;;;;;;;;;;5052026;28;20366;-82
2022/02/27 08:22:07;;;;;;;12.93;6.50;;;;;;;;;;5050454;28;20068;-81
2022/02/27 08:24:34;;;;;;;13.75;6.65;;;;;;;;;;5032185;28;20057;-79
2022/02/27 08:27:00;;;;;;;10.35;6.13;;;;;;;;;;5010374;28;20125;-79
2022/02/27 08:29:26;;;;;;;14.27;6.85;;;;;;;;;;5044951;28;20132;-79
2022/02/27 08:31:53;;;;;;;12.23;6.35;;;;;;;;;;5044272;28;20099;-79
2022/02/27 08:34:19;;;;;;;14.30;6.30;;;;;;;;;;5030427;28;20050;-79
2022/02/27 08:36:47;;;;;;;10.32;5.85;;;;;;;;;;5023488;28;20084;-79
2022/02/27 08:39:14;;;;;;;14.07;6.50;;;;;;;;;;5025084;28;20058;-79
2022/02/27 08:41:40;;;;;;;11.73;5.78;;;;;;;;;;5031244;28;20058;-80
2022/02/27 08:44:10;;;;;;;14.18;5.95;;;;;;;;;;5042014;28;20049;-82
2022/02/27 08:46:36;;;;;;;11.45;6.28;;;;;;;;;;5051284;28;20050;-82
2022/02/27 08:49:03;;;;;;;14.60;6.45;;;;;;;;;;5049549;28;20045;-81
2022/02/27 08:51:29;;;;;;;14.70;7.03;;;;;;;;;;5051573;28;20109;-81
2022/02/27 08:53:57;;;;;;;17.90;6.45;;;;;;;;;;5042583;28;20045;-82
2022/02/27 08:56:23;;;;;;;15.43;6.50;;;;;;;;;;5031720;28;20077;-81
2022/02/27 08:58:50;;;;;;;11.77;7.05;;;;;;;;;;5031409;28;20054;-82
2022/02/27 09:01:16;;;;;;;10.65;7.05;;;;;;;;;;5031674;28;20069;-81
2022/02/27 09:03:43;;;;;;;11.32;6.53;;;;;;;;;;5032306;28;20050;-82
2022/02/27 09:06:09;;;;;;;12.30;6.50;;;;;;;;;;5031952;28;20053;-81
2022/02/27 09:08:37;;;;;;;11.90;6.50;;;;;;;;;;5029144;28;20050;-83
2022/02/27 09:11:05;;;;;;;14.68;6.45;;;;;;;;;;5026352;28;20046;-81
2022/02/27 09:13:32;;;;;;;16.50;6.80;;;;;;;;;;5020446;28;20046;-80
2022/02/27 09:15:58;;;;;;;15.68;6.70;;;;;;;;;;5017125;28;20085;-80
2022/02/27 09:18:25;;;;;;;16.00;7.28;;;;;;;;;;5025112;28;20133;-82
2022/02/27 09:20:51;;;;;;;13.45;6.53;;;;;;;;;;5028044;28;20040;-79
2022/02/27 09:23:17;;;;;;;10.98;6.43;;;;;;;;;;5033236;28;20069;-81
2022/02/27 09:25:44;;;;;;;15.18;7.20;;;;;;;;;;5036562;28;20029;-82
2022/02/27 09:28:11;;;;;;;10.50;6.65;;;;;;;;;;5035538;28;20073;-80
2022/02/27 09:30:38;;;;;;;12.35;6.45;;;;;;;;;;5036999;28;20026;-80
2022/02/27 09:33:04;;;;;;;16.05;7.10;;;;;;;;;;5037357;28;20084;-79
2022/02/27 09:35:30;;;;;;;12.23;6.78;;;;;;;;;;5022406;28;20405;-82
2022/02/27 09:37:57;;;;;;;11.57;6.28;;;;;;;;;;5017192;28;20088;-81
2022/02/27 09:40:24;;;;;;;13.43;6.43;;;;;;;;;;5018414;28;20046;-80
2022/02/27 09:42:52;;;;;;;10.73;5.60;;;;;;;;;;5018729;28;20141;-79
2022/02/27 09:45:20;;;;;;;11.50;6.10;;;;;;;;;;5018339;28;20054;-81
2022/02/27 09:47:46;;;;;;;12.65;6.28;;;;;;;;;;5017202;28;20068;-80
2022/02/27 09:50:13;;;;;;;15.23;7.32;;;;;;;;;;5017801;28;20056;-80
2022/02/27 09:52:40;;;;;;;14.20;6.40;;;;;;;;;;5019478;28;20080;-79
2022/02/27 09:55:08;;;;;;;11.32;6.03;;;;;;;;;;5017430;28;20085;-81
2022/02/27 09:57:35;;;;;;;10.43;6.28;;;;;;;;;;5018378;28;20081;-81
2022/02/27 10:06:15;;;;;;;14.10;7.10;;;;;;;19.97;45.41;102620.25;5065959;27;20393;-54
2022/02/27 10:12:12;;;;;;;8.90;5.38;;;;;;;7.18;54.64;102565.94;5114968;27;20384;-81
2022/02/27 10:14:40;;;;;;;9.18;5.53;;;;;;;6.49;57.76;102581.09;5089612;27;20506;-82
2022/02/27 10:17:08;;;;;;;10.88;5.68;;;;;;;6.37;58.07;102572.19;5058082;28;20049;-82
2022/02/27 10:19:37;;;;;;;10.02;5.57;;;;;;;6.32;57.33;102566.38;5052291;28;20053;-81
2022/02/27 10:22:04;;;;;;;11.68;5.53;;;;;;;6.48;58.26;102564.66;5045542;28;20546;-81
2022/02/27 10:24:35;;;;;;;14.57;6.43;;;;;;;6.58;57.63;102562.41;5073904;23;20073;-82
2022/02/27 10:27:10;;;;;;;11.13;5.20;;;;;;;6.50;56.85;102554.19;5029463;28;20124;-83
2022/02/27 10:29:37;;;;;;;9.70;5.78;;;;;;;6.58;57.06;102585.81;5024199;28;20092;-84
2022/02/27 10:32:06;;;;;;;8.25;5.15;;;;;;;6.56;55.88;102572.06;5024714;28;20073;-83
2022/02/27 10:34:41;;;;;;;10.85;5.78;;;;;;;6.72;55.75;102574.63;5022721;28;20096;-83
2022/02/27 10:37:12;;;;;;;11.10;5.43;;;;;;;6.86;56.57;102574.72;5013723;28;20050;-83
2022/02/27 10:39:48;;;;;;;10.45;5.72;;;;;;;6.82;56.08;102555.00;5005999;28;20141;-85
2022/02/27 10:42:25;;;;;;;13.02;5.45;;;;;;;6.88;55.14;102563.31;5006191;28;20146;-82
2022/02/27 10:45:00;;;;;;;13.55;6.43;;;;;;;6.80;54.52;102567.25;5003739;28;20051;-83
2022/02/27 10:47:32;;;;;;;9.77;5.25;;;;;;;6.84;53.89;102550.56;5001620;28;20066;-83
2022/02/27 10:50:04;;;;;;;9.13;4.93;;;;;;;7.09;54.00;102560.44;5005806;28;20074;-83
2022/02/27 10:52:34;;;;;;;12.32;6.00;;;;;;;7.03;54.37;102558.19;5001022;28;20074;-83
2022/02/27 10:55:04;;;;;;;14.02;5.47;;;;;;;7.28;54.25;102561.06;5012118;28;20102;-82
2022/02/27 10:57:35;;;;;;;8.63;5.25;;;;;;;7.43;54.68;102547.16;5012800;28;20085;-84
2022/02/27 11:00:12;;;;;;;9.82;5.20;;;;;;;7.24;53.71;102557.78;5014324;28;20054;-82
2022/02/27 11:02:39;;;;;;;10.13;4.75;;;;;;;7.44;54.63;102551.44;5004393;28;20416;-83
2022/02/27 11:05:12;;;;;;;11.02;5.65;;;;;;;7.28;53.56;102535.03;5004249;28;20078;-83
2022/02/27 11:07:41;;;;;;;11.10;5.40;;;;;;;7.28;53.59;102540.22;4996904;28;20050;-86
2022/02/27 11:10:21;;;;;;;8.80;5.50;;;;;;;7.57;52.80;102541.97;4997378;28;20141;-85
2022/02/27 11:12:50;;;;;;;7.97;4.90;;;;;;;7.55;52.27;102525.63;5003863;28;20051;-84
2022/02/27 11:15:19;;;;;;;7.95;5.10;;;;;;;7.47;51.59;102535.66;5017779;28;20121;-90
2022/02/27 11:17:46;;;;;;;6.85;4.80;;;;;;;7.40;50.78;102523.91;5017172;28;20109;-87
2022/02/27 11:20:16;;;;;;;7.40;5.15;;;;;;;7.53;50.46;102516.22;5011822;28;20181;-88
2022/02/27 11:22:43;;;;;;;8.82;4.80;;;;;;;7.64;51.34;102535.47;4999049;28;20039;-86
2022/02/27 11:25:11;;;;;;;12.73;5.53;;;;;;;7.65;51.95;102520.69;5000851;28;20091;-86
2022/02/27 11:27:45;;;;;;;6.72;4.60;;;;;;;8.01;51.96;102535.91;4999290;28;20051;-88
2022/02/27 11:30:14;;;;;;;11.35;5.88;;;;;;;7.74;51.52;102516.69;5002415;28;20043;-83
2022/02/27 11:32:52;;;;;;;13.77;5.20;;;;;;;7.79;51.62;102525.06;4996967;28;20085;-87
2022/02/27 11:35:53;;;;;;;8.50;5.10;;;;;;;7.80;51.87;102530.19;4998535;28;20066;-85
2022/02/27 11:38:41;;;;;;;8.80;5.18;;;;;;;8.14;52.15;102533.38;4997141;28;20061;-86
2022/02/27 11:41:17;;;;;;;10.93;5.75;;;;;;;8.20;51.25;102539.03;4991118;28;20141;-85
2022/02/27 11:43:50;;;;;;;8.70;5.32;;;;;;;7.99;50.20;102527.34;5006172;28;20057;-86
2022/02/27 11:46:32;;;;;;;10.10;5.40;;;;;;;8.21;50.60;102527.69;5001430;28;20106;-86
2022/02/27 11:49:02;;;;;;;10.73;5.70;;;;;;;8.18;50.90;102519.19;4993991;28;20132;-85
2022/02/27 11:52:02;;;;;;;14.77;8.70;;;;;;;8.26;51.13;102519.56;4997220;28;20050;-87
2022/02/27 11:54:44;;;;;;;11.02;7.28;;;;;;;8.37;51.80;102514.56;5003652;28;20062;-86
2022/02/27 11:57:22;;;;;;;9.25;5.43;;;;;;;8.23;52.13;102525.81;4991062;28;20416;-84
2022/02/27 11:59:59;;;;;;;12.02;6.28;;;;;;;8.41;52.35;102517.81;5001302;28;20101;-85
2022/02/27 12:02:38;;;;;;;12.05;6.07;;;;;;;8.15;51.39;102501.97;5009069;28;20495;-84
2022/02/27 12:05:08;;;;;;;12.20;6.28;;;;;;;7.99;51.05;102516.91;5002492;28;20054;-83
2022/02/27 12:08:06;;;;;;;12.45;6.30;;;;;;;8.55;52.43;102515.16;5004983;28;20250;-84
2022/02/27 12:10:35;;;;;;;12.57;5.55;;;;;;;8.38;51.65;102512.78;5001022;28;20042;-84
2022/02/27 12:13:02;;;;;;;11.10;6.47;;;;;;;8.35;51.15;102513.81;5004215;28;20061;-84
2022/02/27 12:15:32;;;;;;;10.93;5.57;;;;;;;8.38;50.62;102499.75;5002604;28;20124;-84
2022/02/27 12:18:04;;;;;;;10.23;5.47;;;;;;;8.18;50.49;102512.22;4999655;28;20069;-82
2022/02/27 12:20:50;;;;;;;10.40;5.23;;;;;;;8.21;50.66;102495.53;4995217;28;20054;-84
2022/02/27 12:23:51;;;;;;;10.98;5.47;;;;;;;8.45;50.53;102509.72;4998673;28;20118;-84
2022/02/27 12:26:51;;;;;;;10.05;5.85;;;;;;;8.35;49.67;102510.38;4994893;28;20050;-87
2022/02/27 12:29:40;;;;;;;10.95;5.90;;;;;;;8.38;49.53;102497.16;5000035;28;20050;-84
2022/02/27 12:32:12;;;;;;;10.55;5.47;;;;;;;8.54;49.86;102495.22;5002238;28;20046;-85
2022/02/27 12:34:43;;;;;;;8.65;5.93;;;;;;;8.46;49.49;102500.94;5004453;28;20050;-84
2022/02/27 12:37:11;;;;;;;12.07;5.53;;;;;;;8.54;49.67;102492.63;5005042;28;20141;-83
2022/02/27 12:39:41;;;;;;;10.05;5.75;;;;;;;8.58;50.11;102494.94;5006134;28;20054;-84
2022/02/27 12:42:10;;;;;;;10.55;5.70;;;;;;;8.64;49.62;102504.97;5004493;28;20059;-83
2022/02/27 12:44:40;;;;;;;9.73;5.68;;;;;;;8.80;49.17;102486.56;5003031;28;20066;-84
2022/02/27 12:47:10;;;;;;;10.07;5.97;;;;;;;8.77;50.47;102489.38;5002226;28;20064;-85
2022/02/27 12:52:34;;;;;;;10.18;6.13;;;;;;;8.60;49.64;102472.19;5004220;28;20105;-85
2022/02/27 12:55:00;;;;;;;9.27;5.72;;;;;;;8.72;51.05;102481.00;5002313;28;20070;-84
2022/02/27 12:57:27;;;;;;;9.88;6.00;;;;;;;9.03;50.81;102489.44;5005683;28;20054;-85
2022/02/27 12:59:55;;;;;;;9.38;5.25;;;;;;;8.74;48.95;102481.75;5004691;28;20050;-84
2022/02/27 13:02:25;;;;;;;9.77;5.72;;;;;;;8.76;49.86;102477.25;5006458;28;20134;-85
2022/02/27 13:04:58;;;;;;;10.45;5.47;;;;;;;8.56;49.46;102470.69;5003397;28;20188;-84
2022/02/27 13:07:27;;;;;;;9.07;6.00;;;;;;;8.73;49.38;102480.06;5004581;28;20188;-84
2022/02/27 13:09:55;;;;;;;10.30;5.88;;;;;;;8.45;48.86;102482.78;5004583;28;20050;-85
2022/02/27 13:12:25;;;;;;;9.10;5.88;;;;;;;8.56;49.50;102469.88;5004927;28;20057;-83
2022/02/27 13:14:54;;;;;;;10.93;5.68;;;;;;;8.67;48.98;102462.19;5005106;28;20070;-84
2022/02/27 13:17:23;;;;;;;8.88;5.43;;;;;;;8.69;48.29;102470.75;5005741;28;20058;-84
2022/02/27 13:19:51;;;;;;;7.97;5.10;;;;;;;8.73;48.51;102477.47;5005912;28;20511;-85
2022/02/27 13:22:27;;;;;;;7.97;5.47;;;;;;;8.72;49.03;102470.56;5006488;28;20057;-87
2022/02/27 13:24:55;;;;;;;12.15;5.68;;;;;;;8.61;48.77;102473.84;5008466;28;20062;-86
2022/02/27 13:27:26;;;;;;;8.75;5.85;;;;;;;8.96;48.97;102474.19;5011332;28;20086;-86
2022/02/27 13:29:56;;;;;;;11.98;5.50;;;;;;;8.84;48.71;102461.94;5010058;28;20062;-86
2022/02/27 13:32:26;;;;;;;8.07;5.38;;;;;;;8.87;48.68;102455.69;5006911;28;20062;-85
2022/02/27 13:34:59;;;;;;;9.25;5.75;;;;;;;8.79;48.00;102463.19;5009403;28;20512;-85
2022/02/27 13:37:30;;;;;;;9.95;5.78;;;;;;;8.81;48.60;102469.13;5006838;28;20054;-85
2022/02/27 13:39:59;;;;;;;8.70;5.88;;;;;;;8.72;48.22;102454.91;5002983;28;20085;-84
2022/02/27 13:42:28;;;;;;;10.13;5.75;;;;;;;8.84;48.58;102461.09;5003074;28;20050;-85
2022/02/27 13:44:55;;;;;;;7.05;5.35;;;;;;;8.81;47.25;102443.88;5002567;28;20060;-84
2022/02/27 13:47:27;;;;;;;8.75;5.68;;;;;;;8.90;48.61;102447.66;5002975;28;20058;-85
2022/02/27 13:49:54;;;;;;;7.60;5.77;;;;;;;8.94;48.19;102441.31;5000688;28;20109;-85